createdAt,value
2019-02-28T00:03:34.125Z,17.83
2019-02-28T00:08:38.773Z,15.73
2019-02-28T00:13:43.000Z,15.33
2019-02-28T00:18:49.964Z,14.93
2019-02-28T00:23:56.717Z,16.30
2019-02-28T00:29:00.519Z,15.43
2019-02-28T00:34:05.620Z,15.73
2019-02-28T00:39:09.903Z,15.33
2019-02-28T00:44:14.137Z,21.33
2019-02-28T00:49:18.392Z,15.40
2019-02-28T00:54:22.607Z,13.80
2019-02-28T00:59:26.846Z,17.93
2019-02-28T01:04:31.068Z,18.03
2019-02-28T01:09:35.305Z,15.50
2019-02-28T01:14:39.528Z,14.27
2019-02-28T01:19:43.741Z,14.33
2019-02-28T01:24:47.968Z,18.07
2019-02-28T01:29:52.188Z,17.43
2019-02-28T01:34:56.410Z,13.70
2019-02-28T01:40:01.145Z,15.23
2019-02-28T01:45:09.956Z,13.07
2019-02-28T01:50:13.007Z,15.87
2019-02-28T01:55:17.219Z,17.57
2019-02-28T02:00:23.791Z,17.53
2019-02-28T02:05:27.871Z,16.67
2019-02-28T02:10:32.199Z,18.40
2019-02-28T02:15:36.417Z,18.40
2019-02-28T02:20:40.648Z,21.73
2019-02-28T02:25:44.886Z,19.60
2019-02-28T02:30:50.862Z,23.47
2019-02-28T02:35:55.069Z,19.30
2019-02-28T02:41:00.894Z,16.63
2019-02-28T02:46:05.396Z,19.37
2019-02-28T02:51:11.342Z,18.80
2019-02-28T02:56:15.558Z,20.43
2019-02-28T03:01:23.139Z,21.13
2019-02-28T03:06:25.736Z,23.57
2019-02-28T03:11:30.057Z,22.07
2019-02-28T03:16:34.661Z,20.07
2019-02-28T03:21:39.013Z,25.10
2019-02-28T03:26:43.474Z,23.80
2019-02-28T03:31:55.404Z,24.37
2019-02-28T03:36:56.902Z,25.03
2019-02-28T03:41:59.945Z,22.77
2019-02-28T03:47:04.546Z,28.03
2019-02-28T03:52:08.762Z,25.17
2019-02-28T03:57:13.122Z,28.67
2019-02-28T04:02:22.132Z,27.47
2019-02-28T04:07:23.743Z,30.13
2019-02-28T04:12:28.196Z,30.70
2019-02-28T04:17:32.468Z,30.30
2019-02-28T04:22:36.861Z,27.80
2019-02-28T04:27:41.861Z,30.90
2019-02-28T04:32:46.312Z,29.10
2019-02-28T04:37:50.562Z,33.90
2019-02-28T04:42:54.766Z,31.97
2019-02-28T04:47:58.984Z,36.37
2019-02-28T04:53:03.210Z,33.33
2019-02-28T04:58:07.427Z,35.67
2019-02-28T05:03:11.829Z,31.50
2019-02-28T05:08:16.060Z,35.30
2019-02-28T05:13:20.296Z,37.83
2019-02-28T05:18:27.598Z,39.00
2019-02-28T05:23:35.803Z,43.47
2019-02-28T05:28:40.323Z,44.13
2019-02-28T05:33:42.981Z,48.20
2019-02-28T05:38:47.215Z,42.97
2019-02-28T05:43:51.422Z,39.57
2019-02-28T05:48:55.679Z,44.87
2019-02-28T05:54:00.141Z,43.50
2019-02-28T05:59:04.427Z,45.33
2019-02-28T06:04:08.757Z,49.03
2019-02-28T06:09:13.726Z,50.80
2019-02-28T06:14:19.012Z,50.67
2019-02-28T06:19:23.259Z,53.77
2019-02-28T06:24:27.515Z,53.03
2019-02-28T06:29:32.600Z,50.10
2019-02-28T06:34:42.289Z,60.57
2019-02-28T06:39:45.584Z,57.23
2019-02-28T06:44:49.812Z,55.57
2019-02-28T06:49:54.495Z,56.03
2019-02-28T06:54:58.781Z,54.67
2019-02-28T07:00:03.071Z,68.17
2019-02-28T07:05:07.456Z,61.17
2019-02-28T07:10:12.707Z,59.13
2019-02-28T07:15:23.526Z,65.60
2019-02-28T07:20:23.645Z,61.63
2019-02-28T07:25:27.877Z,66.37
2019-02-28T07:30:32.107Z,70.87
2019-02-28T07:35:36.945Z,64.97
2019-02-28T07:40:41.465Z,65.27
2019-02-28T07:45:45.709Z,72.80
2019-02-28T07:50:49.952Z,71.43
2019-02-28T07:55:54.181Z,77.00
2019-02-28T08:00:58.431Z,73.10
2019-02-28T08:06:04.756Z,76.97
2019-02-28T08:11:08.624Z,79.80
2019-02-28T08:16:12.859Z,78.53
2019-02-28T08:21:17.083Z,93.97
2019-02-28T08:26:21.297Z,89.63
2019-02-28T08:31:28.331Z,83.93
2019-02-28T08:36:31.475Z,92.30
2019-02-28T08:41:35.738Z,91.40
2019-02-28T08:46:39.981Z,82.93
2019-02-28T08:51:44.200Z,83.87
2019-02-28T08:56:49.552Z,86.50
2019-02-28T09:01:54.373Z,87.17
2019-02-28T09:06:58.606Z,87.97
2019-02-28T09:12:02.874Z,83.60
2019-02-28T09:17:07.199Z,89.03
2019-02-28T09:22:11.436Z,94.40
2019-02-28T09:27:15.673Z,87.47
2019-02-28T09:32:19.923Z,95.60
2019-02-28T09:37:24.154Z,87.03
2019-02-28T09:42:28.406Z,86.83
2019-02-28T09:47:32.628Z,92.50
2019-02-28T09:52:41.283Z,95.43
2019-02-28T09:57:43.920Z,90.53
2019-02-28T10:02:48.288Z,88.53
2019-02-28T10:07:52.814Z,90.37
2019-02-28T10:12:57.061Z,80.70
2019-02-28T10:18:04.380Z,81.03
2019-02-28T10:23:07.261Z,81.60
2019-02-28T10:28:11.490Z,82.57
2019-02-28T10:33:17.283Z,80.80
2019-02-28T10:38:21.700Z,82.37
2019-02-28T10:43:26.077Z,85.00
2019-02-28T10:48:30.513Z,74.15
2019-02-28T10:53:36.243Z,75.75
2019-02-28T10:58:41.032Z,82.57
2019-02-28T11:03:46.932Z,75.95
2019-02-28T11:08:51.178Z,78.05
2019-02-28T11:13:55.580Z,77.55
2019-02-28T11:18:59.867Z,79.47
2019-02-28T11:24:04.105Z,82.17
2019-02-28T11:29:08.342Z,75.47
2019-02-28T11:34:15.018Z,83.15
2019-02-28T11:39:21.846Z,80.87
2019-02-28T11:44:26.084Z,83.03
2019-02-28T11:49:30.313Z,76.15
2019-02-28T11:54:34.547Z,71.82
2019-02-28T11:59:38.769Z,77.32
2019-02-28T12:04:43.013Z,86.40
2019-02-28T12:09:47.232Z,77.70
2019-02-28T12:14:51.484Z,77.90
2019-02-28T12:19:55.712Z,80.60
2019-02-28T12:24:59.957Z,75.75
2019-02-28T12:30:04.803Z,72.87
2019-02-28T12:35:09.269Z,74.37
2019-02-28T12:40:16.043Z,71.37
2019-02-28T12:45:26.137Z,74.03
2019-02-28T12:50:30.462Z,69.70
2019-02-28T12:55:35.571Z,77.32
2019-02-28T13:00:40.875Z,75.52
2019-02-28T13:05:48.015Z,79.17
2019-02-28T13:10:51.071Z,87.12
2019-02-28T13:15:55.305Z,75.08
2019-02-28T13:20:59.633Z,68.42
2019-02-28T13:26:03.887Z,73.87
2019-02-28T13:31:08.204Z,70.62
2019-02-28T13:36:13.049Z,71.70
2019-02-28T13:41:18.365Z,73.20
2019-02-28T13:46:23.308Z,73.15
2019-02-28T13:51:27.541Z,76.70
2019-02-28T13:56:32.897Z,80.70
2019-02-28T14:01:37.740Z,73.25
2019-02-28T14:06:41.977Z,72.40
2019-02-28T14:11:46.513Z,79.47
2019-02-28T14:16:50.761Z,75.47
2019-02-28T14:21:55.003Z,75.47
2019-02-28T14:26:59.287Z,74.60
2019-02-28T14:32:04.635Z,84.87
2019-02-28T14:37:09.477Z,82.37
2019-02-28T14:42:13.820Z,81.20
2019-02-28T14:47:18.070Z,71.75
2019-02-28T14:52:22.316Z,77.03
2019-02-28T14:57:27.511Z,76.17
2019-02-28T15:02:31.734Z,77.25
2019-02-28T15:07:38.712Z,77.40
2019-02-28T15:12:41.955Z,74.50
2019-02-28T15:17:46.508Z,80.47
2019-02-28T15:22:52.530Z,79.17
2019-02-28T15:27:57.374Z,78.70
2019-02-28T15:33:01.708Z,86.80
2019-02-28T15:38:09.338Z,83.97
2019-02-28T15:43:16.966Z,83.97
2019-02-28T15:48:17.889Z,90.93
2019-02-28T15:53:22.132Z,83.77
2019-02-28T15:58:26.367Z,89.27
2019-02-28T16:03:30.600Z,92.23
2019-02-28T16:08:34.841Z,96.30
2019-02-28T16:18:48.767Z,98.87
2019-02-28T16:23:53.192Z,90.23
2019-02-28T16:28:57.467Z,105.63
2019-02-28T16:34:08.276Z,102.63
2019-02-28T16:39:08.366Z,101.13
2019-02-28T16:44:12.635Z,110.40
2019-02-28T16:49:16.879Z,97.50
2019-02-28T16:54:22.561Z,94.97
2019-02-28T16:59:28.458Z,103.37
2019-02-28T17:04:33.108Z,106.67
2019-02-28T17:09:41.980Z,106.07
2019-02-28T17:14:48.288Z,104.83
2019-02-28T17:19:52.564Z,98.70
2019-02-28T17:24:56.883Z,96.60
2019-02-28T17:30:36.256Z,105.70
2019-02-28T17:35:41.221Z,103.23
2019-02-28T17:40:45.462Z,105.40
2019-02-28T17:45:50.597Z,108.63
2019-02-28T17:51:55.498Z,102.23
2019-02-28T17:57:27.937Z,94.90
2019-02-28T18:02:59.213Z,98.20
2019-02-28T18:08:12.915Z,99.63
2019-02-28T18:13:29.288Z,93.97
2019-02-28T18:18:54.997Z,110.60
2019-02-28T18:24:13.318Z,91.23
2019-02-28T18:29:35.431Z,97.23
2019-02-28T18:34:39.688Z,102.83
2019-02-28T18:39:44.621Z,109.60
2019-02-28T18:44:49.923Z,103.83
2019-02-28T18:49:54.845Z,100.10
2019-02-28T18:55:05.753Z,105.43
2019-02-28T19:00:06.072Z,101.30
2019-02-28T19:05:10.418Z,107.73
2019-02-28T19:10:14.682Z,104.80
2019-02-28T19:15:19.406Z,111.20
2019-02-28T19:20:23.855Z,103.57
2019-02-28T19:25:28.123Z,103.47
2019-02-28T19:30:32.364Z,112.07
2019-02-28T19:35:36.603Z,109.60
2019-02-28T19:40:40.852Z,111.57
2019-02-28T19:45:45.943Z,125.57
2019-02-28T19:50:50.237Z,117.27
2019-02-28T19:55:54.510Z,116.63
2019-02-28T20:00:58.809Z,114.63
2019-02-28T20:06:03.270Z,117.47
2019-02-28T20:11:07.523Z,113.13
2019-02-28T20:16:11.861Z,118.37
2019-02-28T20:21:16.182Z,120.77
2019-02-28T20:26:20.454Z,106.27
2019-02-28T20:31:24.999Z,119.43
2019-02-28T20:36:29.336Z,127.07
2019-02-28T20:41:33.585Z,114.10
2019-02-28T20:46:37.829Z,124.70
2019-02-28T20:51:42.116Z,113.10
2019-02-28T20:56:47.134Z,117.90
2019-02-28T21:01:51.381Z,116.43
2019-02-28T21:06:55.640Z,121.83
2019-02-28T21:11:59.896Z,118.17
2019-02-28T21:17:04.136Z,122.23
2019-02-28T21:22:11.742Z,111.20
2019-02-28T21:27:15.963Z,111.53
2019-02-28T21:32:20.202Z,112.37
2019-02-28T21:37:24.453Z,113.87
2019-02-28T21:42:28.719Z,113.60
2019-02-28T21:47:32.975Z,106.57
2019-02-28T21:52:37.231Z,103.60
2019-02-28T21:57:41.479Z,96.30
2019-02-28T22:02:45.720Z,102.23
2019-02-28T22:07:49.951Z,100.37
2019-02-28T22:12:54.185Z,91.50
2019-02-28T22:17:58.579Z,87.03
2019-02-28T22:23:02.814Z,86.57
2019-02-28T22:28:07.040Z,94.30
2019-02-28T22:33:17.201Z,84.33
2019-02-28T22:38:21.414Z,87.67
2019-02-28T22:43:25.655Z,88.83
2019-02-28T22:48:29.880Z,87.67
2019-02-28T22:53:34.116Z,82.53
2019-02-28T22:58:38.359Z,76.17
2019-02-28T23:03:42.787Z,95.83
2019-02-28T23:08:47.011Z,81.03
2019-02-28T23:13:51.246Z,80.23
2019-02-28T23:18:55.478Z,81.97
2019-02-28T23:23:59.707Z,78.00
2019-02-28T23:29:17.618Z,80.07
2019-02-28T23:34:37.570Z,80.40
2019-02-28T23:39:41.808Z,73.20
2019-02-28T23:44:46.042Z,79.33
2019-02-28T23:49:50.273Z,80.87
2019-02-28T23:54:54.507Z,69.30
2019-02-28T23:59:58.780Z,75.67
